Time;durP1;ratioP1;P1;durP2;ratioP2;P2;SDS_P1;SDS_P2;PMS_P1;PMS_P2;Temp;Humidity;BMP_temperature;BMP_pressure;BME280_temperature;BME280_humidity;BME280_pressure;Samples;Min_cycle;Max_cycle;Signal;HPM_P1;HPM_P2
2022/01/30 00:00:01;;;;;;;2.30;1.40;;;;;;;14.40;46.32;97630.86;1772125;79;20944;-65
2022/01/30 00:02:28;;;;;;;1.57;1.40;;;;;;;14.30;40.95;97614.06;1767738;79;21444;-65
2022/01/30 00:04:54;;;;;;;1.72;1.32;;;;;;;14.36;40.15;97610.48;1759902;79;21449;-65
2022/01/30 00:07:21;;;;;;;2.30;1.90;;;;;;;14.37;39.69;97600.57;1773639;79;20947;-66
2022/01/30 00:09:50;;;;;;;1.62;1.45;;;;;;;14.44;39.22;97586.02;1771147;81;20876;-66
2022/01/30 00:12:19;;;;;;;2.35;1.65;;;;;;;14.44;40.72;97594.05;1763144;81;20937;-65
2022/01/30 00:14:45;;;;;;;2.35;1.62;;;;;;;14.44;39.24;97591.38;1783138;78;20931;-65
2022/01/30 00:17:18;;;;;;;3.52;2.00;;;;;;;14.40;39.31;97591.55;1790757;78;21927;-65
2022/01/30 00:19:45;;;;;;;2.20;1.77;;;;;;;14.35;38.91;97593.31;1789197;79;20907;-66
2022/01/30 00:22:36;;;;;;;2.25;1.75;;;;;;;14.32;38.79;97575.06;1785862;78;21117;-65
2022/01/30 00:25:02;;;;;;;2.75;1.50;;;;;;;14.30;38.85;97588.66;1787095;78;20992;-64
2022/01/30 00:27:30;;;;;;;2.22;1.55;;;;;;;14.34;38.65;97571.66;1779902;80;20970;-65
2022/01/30 00:29:54;;;;;;;2.50;1.80;;;;;;;14.35;38.41;97567.91;1789748;78;20924;-66
2022/01/30 00:32:20;;;;;;;1.70;1.60;;;;;;;14.35;38.38;97558.02;1779464;80;20984;-66
2022/01/30 00:34:47;;;;;;;2.15;1.85;;;;;;;14.30;38.39;97552.55;1786677;80;21964;-66
2022/01/30 00:37:14;;;;;;;2.02;1.60;;;;;;;14.29;38.32;97548.80;1790602;78;20950;-66
2022/01/30 00:39:41;;;;;;;2.12;1.92;;;;;;;14.35;38.21;97533.95;1789906;80;20955;-64
2022/01/30 00:42:08;;;;;;;1.75;1.62;;;;;;;14.34;38.40;97518.94;1781152;78;21030;-66
2022/01/30 00:44:36;;;;;;;1.50;1.30;;;;;;;14.36;38.38;97513.38;1770212;80;21030;-66
2022/01/30 00:47:04;;;;;;;1.60;1.40;;;;;;;14.35;38.42;97504.53;1791124;78;21134;-65
2022/01/30 00:49:31;;;;;;;2.10;1.70;;;;;;;14.41;38.46;97498.74;1788908;78;21583;-65
2022/01/30 00:51:58;;;;;;;1.70;1.57;;;;;;;14.54;38.02;97489.06;1789168;78;20930;-65
2022/01/30 00:54:25;;;;;;;1.75;1.47;;;;;;;14.57;37.93;97483.23;1784331;80;20939;-65
2022/01/30 00:56:51;;;;;;;1.50;1.40;;;;;;;14.53;37.89;97478.87;1789381;80;20868;-64
2022/01/30 00:59:18;;;;;;;1.67;1.57;;;;;;;14.51;38.21;97467.62;1779432;78;21141;-65
2022/01/30 01:01:44;;;;;;;1.70;1.17;;;;;;;14.53;38.27;97466.84;1790302;80;20998;-65
2022/01/30 01:04:10;;;;;;;1.95;1.60;;;;;;;14.54;38.17;97460.97;1773362;79;20988;-65
2022/01/30 01:06:38;;;;;;;1.50;1.40;;;;;;;14.56;38.16;97462.34;1777808;78;21434;-65
2022/01/30 01:09:05;;;;;;;1.50;1.40;;;;;;;14.60;38.09;97466.14;1774724;78;21513;-65
2022/01/30 01:25:18;;;;;;;1.85;1.47;;;;;;;14.89;37.27;97399.92;1787239;80;21168;-65
2022/01/30 01:27:45;;;;;;;1.85;1.45;;;;;;;14.92;37.19;97390.58;1778144;80;20930;-65
2022/01/30 01:30:12;;;;;;;2.45;1.40;;;;;;;14.94;37.32;97377.78;1778405;78;20931;-65
2022/01/30 01:32:39;;;;;;;1.75;1.32;;;;;;;14.99;37.27;97375.16;1790357;79;21426;-65
2022/01/30 01:35:08;;;;;;;3.62;1.50;;;;;;;15.00;37.18;97358.02;1790199;79;21165;-65
2022/01/30 01:37:36;;;;;;;1.85;1.20;;;;;;;15.03;37.12;97365.56;1779170;78;21831;-65
2022/01/30 01:40:04;;;;;;;1.62;1.40;;;;;;;15.08;37.07;97345.02;1791302;78;20978;-66
2022/01/30 01:42:36;;;;;;;1.85;1.20;;;;;;;15.13;37.04;97345.59;1789649;79;21064;-66
2022/01/30 01:45:04;;;;;;;1.95;1.67;;;;;;;15.13;37.16;97337.05;1791373;78;20993;-65
2022/01/30 01:47:33;;;;;;;1.20;1.10;;;;;;;15.22;36.99;97330.20;1790394;78;21518;-65
2022/01/30 01:49:59;;;;;;;2.25;1.40;;;;;;;15.24;36.99;97312.52;1774555;78;21022;-65
2022/01/30 01:52:26;;;;;;;1.45;1.25;;;;;;;15.19;37.06;97313.28;1768109;78;20969;-65
2022/01/30 01:54:59;;;;;;;1.92;1.30;;;;;;;15.20;37.15;97300.70;1771557;80;21001;-66
2022/01/30 01:57:27;;;;;;;1.12;1.02;;;;;;;15.08;37.47;97308.87;1781700;80;21008;-64
2022/01/30 01:59:56;;;;;;;1.25;0.98;;;;;;;15.06;37.64;97279.39;1783614;78;20962;-65
2022/01/30 02:02:30;;;;;;;1.10;1.00;;;;;;;14.99;37.85;97295.63;1772887;79;21206;-66
2022/01/30 02:04:59;;;;;;;1.45;1.20;;;;;;;15.08;37.85;97271.38;1773299;78;21545;-66
2022/01/30 02:10:10;;;;;;;2.15;0.95;;;;;;;15.21;37.81;97266.15;1784184;80;21022;-65
2022/01/30 02:12:46;;;;;;;1.15;0.78;;;;;;;15.22;37.91;97260.56;1762584;80;21022;-65
2022/01/30 02:15:44;;;;;;;1.20;1.00;;;;;;;15.20;38.01;97253.28;1774347;78;21137;-65
2022/01/30 02:25:59;;;;;;;0.90;0.78;;;;;;;15.29;37.83;97219.64;1763550;81;21050;-65
2022/01/30 02:28:27;;;;;;;0.95;0.80;;;;;;;15.29;37.88;97209.45;1762940;79;21768;-65
2022/01/30 02:31:04;;;;;;;1.02;1.02;;;;;;;15.26;37.98;97213.45;1766571;79;20965;-66
2022/01/30 02:33:27;;;;;;;0.70;0.57;;;;;;;15.22;38.04;97202.16;1769220;79;20985;-65
2022/01/30 02:35:54;;;;;;;0.90;0.80;;;;;;;14.76;38.85;97182.96;1771657;79;21003;-65
2022/01/30 02:38:22;;;;;;;1.70;0.95;;;;;;;14.74;38.83;97210.52;1768291;79;20864;-65
2022/01/30 02:40:51;;;;;;;0.90;0.70;;;;;;;14.76;38.86;97167.42;1765829;79;21404;-65
2022/01/30 02:43:21;;;;;;;1.00;0.90;;;;;;;14.82;38.80;97167.77;1757899;81;20984;-65
2022/01/30 02:45:58;;;;;;;0.60;0.60;;;;;;;14.89;38.65;97169.70;1770287;79;20970;-66
2022/01/30 02:48:18;;;;;;;1.10;0.85;;;;;;;14.96;38.45;97157.47;1768663;80;21026;-65
2022/01/30 02:50:54;;;;;;;0.80;0.70;;;;;;;15.02;38.26;97156.44;1762805;80;21012;-64
2022/01/30 02:53:17;;;;;;;1.07;0.88;;;;;;;15.03;38.22;97152.18;1741516;81;23273;-65
2022/01/30 02:55:44;;;;;;;2.45;1.92;;;;;;;14.99;38.23;97143.02;1772208;81;21504;-65
2022/01/30 02:58:11;;;;;;;2.70;1.65;;;;;;;14.99;38.21;97137.67;1773564;79;20932;-65
2022/01/30 03:00:37;;;;;;;1.07;0.90;;;;;;;15.00;38.22;97140.63;1773169;79;21541;-65
2022/01/30 03:03:03;;;;;;;1.25;0.80;;;;;;;15.03;38.08;97136.11;1770948;81;21516;-65
2022/01/30 03:05:30;;;;;;;1.17;1.00;;;;;;;15.02;38.72;97121.63;1769213;79;21418;-65
2022/01/30 03:07:57;;;;;;;0.82;0.80;;;;;;;14.99;38.93;97130.19;1760133;79;20919;-65
2022/01/30 03:10:24;;;;;;;0.75;0.75;;;;;;;14.97;39.03;97106.86;1768520;81;20957;-65
2022/01/30 03:12:50;;;;;;;1.20;0.80;;;;;;;15.00;39.02;97107.17;1754985;79;20884;-66
2022/01/30 03:15:17;;;;;;;1.07;0.82;;;;;;;15.01;39.03;97105.30;1766118;79;21509;-65
2022/01/30 03:17:43;;;;;;;4.92;1.02;;;;;;;15.02;39.00;97098.34;1755618;81;21121;-66
2022/01/30 03:20:11;;;;;;;1.30;0.93;;;;;;;15.05;39.08;97099.17;1763733;79;20980;-65
2022/01/30 03:22:38;;;;;;;1.05;0.88;;;;;;;15.11;39.28;97089.31;1769010;79;20963;-66
2022/01/30 03:25:05;;;;;;;0.85;0.70;;;;;;;15.26;39.11;97085.41;1759374;79;20971;-66
2022/01/30 03:27:51;;;;;;;0.70;0.70;;;;;;;15.10;39.39;97091.18;1692828;81;21048;-66
2022/01/30 03:30:19;;;;;;;1.00;0.82;;;;;;;15.22;39.02;97082.98;1758350;81;21163;-66
2022/01/30 03:32:44;;;;;;;0.90;0.82;;;;;;;15.26;38.75;97086.22;1755182;79;20932;-66
2022/01/30 03:35:11;;;;;;;1.92;1.15;;;;;;;15.26;38.58;97082.20;1773854;79;20892;-65
2022/01/30 03:37:38;;;;;;;1.55;1.10;;;;;;;15.29;38.49;97072.31;1764790;79;20943;-65
2022/01/30 03:40:06;;;;;;;0.93;0.90;;;;;;;15.36;38.37;97078.77;1747395;80;21513;-65
2022/01/30 03:42:33;;;;;;;0.98;0.75;;;;;;;15.42;38.22;97067.03;1773667;81;21121;-65
2022/01/30 03:45:00;;;;;;;1.60;1.35;;;;;;;15.39;38.26;97064.88;1773959;79;20868;-65
2022/01/30 03:47:26;;;;;;;1.72;1.17;;;;;;;15.40;38.32;97055.78;1774226;79;20927;-66
2022/01/30 03:49:53;;;;;;;0.60;0.60;;;;;;;15.52;38.13;97066.31;1772483;79;21519;-65
2022/01/30 03:52:21;;;;;;;1.02;0.70;;;;;;;15.56;38.01;97056.17;1774132;79;20880;-65
2022/01/30 03:54:48;;;;;;;1.60;1.00;;;;;;;15.62;37.84;97062.34;1774145;79;21152;-66
2022/01/30 03:57:14;;;;;;;1.55;1.20;;;;;;;15.71;37.69;97064.29;1773968;79;21493;-65
2022/01/30 03:59:42;;;;;;;0.82;0.78;;;;;;;15.73;37.63;97045.25;1773654;79;21433;-65
2022/01/30 04:02:10;;;;;;;1.20;1.10;;;;;;;15.81;37.49;97052.27;1775381;79;20978;-65
2022/01/30 04:04:37;;;;;;;1.00;0.90;;;;;;;15.88;37.41;97054.16;1760169;81;21541;-64
2022/01/30 04:07:05;;;;;;;1.20;1.10;;;;;;;15.93;37.35;97058.20;1773210;81;21087;-65
2022/01/30 04:09:49;;;;;;;2.27;1.32;;;;;;;16.00;37.20;97058.80;1773556;81;20915;-65
2022/01/30 04:12:28;;;;;;;2.85;2.33;;;;;;;16.02;37.16;97055.84;1740300;81;20932;-65
2022/01/30 04:15:00;;;;;;;1.62;1.40;;;;;;;16.04;37.12;97026.34;1779935;79;20883;-65
2022/01/30 04:17:30;;;;;;;1.37;1.10;;;;;;;16.01;37.19;97038.94;1777200;79;21393;-65
2022/01/30 04:20:16;;;;;;;3.55;1.20;;;;;;;16.05;37.29;97050.77;1790257;80;21162;-66
2022/01/30 04:22:50;;;;;;;2.02;1.52;;;;;;;16.07;37.33;97030.38;1788383;78;20875;-65
2022/01/30 04:25:24;;;;;;;2.22;1.55;;;;;;;16.14;37.31;97043.55;1787039;80;20883;-66
2022/01/30 04:28:05;;;;;;;1.70;1.30;;;;;;;16.20;37.32;97029.88;1788899;78;21378;-65
2022/01/30 04:30:35;;;;;;;2.85;1.37;;;;;;;16.32;37.39;97037.70;1788436;79;21001;-65
2022/01/30 04:33:10;;;;;;;2.42;1.60;;;;;;;16.30;37.39;97026.40;1786756;80;21870;-65
2022/01/30 04:35:56;;;;;;;2.30;1.62;;;;;;;16.27;37.40;97016.23;1786356;78;20974;-65
2022/01/30 04:59:11;;;;;;;1.70;1.45;;;;;;;16.48;36.43;97011.13;1761234;80;20926;-66
2022/01/30 05:04:44;;;;;;;2.55;1.32;;;;;;;16.58;36.21;97008.52;1738561;81;20938;-65
2022/01/30 05:09:56;;;;;;;3.10;2.05;;;;;;;16.60;36.09;97009.05;1734845;82;20087;-64
2022/01/30 05:12:32;;;;;;;2.30;1.80;;;;;;;16.64;35.96;97006.08;1678646;82;20957;-67
2022/01/30 05:15:17;;;;;;;1.95;1.50;;;;;;;16.66;35.91;97008.77;1722211;83;21163;-66
2022/01/30 05:18:00;;;;;;;1.50;1.25;;;;;;;16.75;35.86;97001.52;1759929;81;20884;-65
2022/01/30 05:20:46;;;;;;;1.65;1.20;;;;;;;16.88;35.62;97002.33;1783567;78;21476;-65
2022/01/30 05:23:17;;;;;;;3.83;1.62;;;;;;;16.76;35.72;97004.48;1785828;80;21500;-66
2022/01/30 05:25:50;;;;;;;1.98;1.32;;;;;;;16.78;35.75;97005.83;1787014;80;20839;-66
2022/01/30 05:28:22;;;;;;;2.10;1.30;;;;;;;16.79;35.72;96999.93;1775770;80;21219;-66
2022/01/30 05:30:51;;;;;;;2.15;1.42;;;;;;;16.80;35.63;97010.92;1775299;78;20910;-66
2022/01/30 05:33:19;;;;;;;2.95;1.75;;;;;;;16.78;35.66;97002.34;1784600;80;20931;-66
2022/01/30 05:35:52;;;;;;;3.75;2.52;;;;;;;16.72;35.72;97009.58;1787795;78;20943;-66
2022/01/30 05:38:22;;;;;;;4.37;2.75;;;;;;;16.71;35.67;97003.15;1777897;80;36700;-66
2022/01/30 05:41:01;;;;;;;3.70;2.80;;;;;;;16.47;36.04;97005.52;1781535;80;21153;-66
2022/01/30 05:43:50;;;;;;;3.58;2.00;;;;;;;16.44;36.05;97022.14;1788182;78;20979;-64
2022/01/30 05:46:39;;;;;;;3.08;1.82;;;;;;;16.44;36.07;97026.98;1784356;78;21523;-66
2022/01/30 05:49:21;;;;;;;;;;;;;;;16.43;36.07;97021.86;1771419;78;20980;-66
2022/01/30 05:52:06;;;;;;;1.42;1.30;;;;;;;16.40;36.04;97019.17;1772376;78;20104;-65
2022/01/30 05:54:36;;;;;;;1.98;1.70;;;;;;;16.44;35.97;97016.25;1773343;78;21147;-65
2022/01/30 05:57:02;;;;;;;2.47;1.42;;;;;;;16.42;35.96;97022.95;1787881;78;20888;-65
2022/01/30 05:59:29;;;;;;;1.75;1.42;;;;;;;16.39;35.92;97014.09;1787674;78;20911;-65
2022/01/30 06:02:00;;;;;;;2.08;1.47;;;;;;;16.41;35.83;97027.51;1768195;78;21046;-66
2022/01/30 06:04:27;;;;;;;3.08;1.52;;;;;;;16.32;35.86;97022.38;1787641;80;20974;-65
2022/01/30 06:06:55;;;;;;;1.82;1.50;;;;;;;16.29;35.81;97016.76;1774904;78;21776;-65
2022/01/30 06:09:22;;;;;;;2.15;1.20;;;;;;;16.24;35.80;97028.27;1772923;78;20935;-65
2022/01/30 06:11:50;;;;;;;2.77;1.65;;;;;;;16.24;35.80;97028.83;1787917;78;21418;-66
2022/01/30 06:14:19;;;;;;;2.62;1.80;;;;;;;16.55;35.27;97029.98;1787934;78;20986;-65
2022/01/30 06:16:45;;;;;;;3.08;1.52;;;;;;;16.60;35.08;97019.25;1735996;80;21007;-64
2022/01/30 06:19:22;;;;;;;2.50;1.72;;;;;;;16.62;35.03;97013.61;1641513;85;21873;-65
2022/01/30 06:22:07;;;;;;;2.65;1.60;;;;;;;16.66;35.16;97024.88;1768834;81;21465;-66
2022/01/30 06:24:38;;;;;;;2.50;1.32;;;;;;;16.80;35.79;97025.16;1726026;80;20959;-66
2022/01/30 06:27:05;;;;;;;3.87;1.45;;;;;;;17.08;35.78;97015.20;1765638;79;21026;-66
2022/01/30 06:29:34;;;;;;;3.15;2.12;;;;;;;17.35;35.29;97012.20;1737121;79;21052;-66
2022/01/30 06:32:04;;;;;;;3.83;1.87;;;;;;;17.50;34.67;97011.34;1760711;80;21150;-66
2022/01/30 06:34:40;;;;;;;3.05;1.72;;;;;;;18.01;33.77;97002.59;1675506;84;20954;-65
2022/01/30 06:37:21;;;;;;;3.50;1.87;;;;;;;17.94;33.48;96994.80;1714005;81;21116;-65
2022/01/30 06:39:55;;;;;;;3.75;2.17;;;;;;;17.85;33.50;97000.51;1740051;79;20958;-66
2022/01/30 06:42:32;;;;;;;4.03;2.40;;;;;;;17.97;33.70;97002.33;1740263;79;20915;-67
2022/01/30 06:45:19;;;;;;;4.15;2.47;;;;;;;18.29;33.20;97009.42;1767973;81;21337;-65
2022/01/30 06:47:47;;;;;;;4.12;2.37;;;;;;;18.77;32.75;96994.84;1754715;79;20919;-66
2022/01/30 06:50:32;;;;;;;4.08;1.72;;;;;;;19.34;32.30;97006.98;1774508;79;20983;-66
2022/01/30 06:53:17;;;;;;;4.87;3.08;;;;;;;19.85;31.30;96987.54;1773240;81;21003;-66
2022/01/30 06:56:02;;;;;;;2.85;1.82;;;;;;;19.97;29.97;97006.83;1773131;79;21100;-67
2022/01/30 06:58:47;;;;;;;3.37;1.55;;;;;;;19.82;29.86;97007.80;1772204;79;21159;-66
2022/01/30 07:01:25;;;;;;;3.37;1.90;;;;;;;19.41;29.98;97002.62;1677613;84;20971;-69
2022/01/30 07:04:06;;;;;;;5.08;2.20;;;;;;;19.18;30.09;97006.06;1769932;80;20935;-68
2022/01/30 07:06:51;;;;;;;5.03;2.70;;;;;;;18.92;30.11;97002.80;1773036;81;20996;-69
2022/01/30 07:09:17;;;;;;;4.55;2.00;;;;;;;18.61;30.33;97000.09;1773612;81;21513;-67
2022/01/30 07:11:45;;;;;;;3.45;1.70;;;;;;;18.32;30.59;97004.83;1774158;79;21147;-66
2022/01/30 07:14:12;;;;;;;2.10;1.30;;;;;;;18.20;30.72;96999.50;1773054;79;20892;-64
2022/01/30 07:16:38;;;;;;;3.85;1.85;;;;;;;17.99;30.89;96998.81;1781432;80;21558;-66
2022/01/30 07:19:05;;;;;;;5.85;1.77;;;;;;;17.83;31.03;97001.33;1793397;80;20966;-66
2022/01/30 07:21:31;;;;;;;3.30;1.67;;;;;;;17.67;31.25;96996.55;1796067;80;21455;-64
2022/01/30 07:23:58;;;;;;;5.28;2.70;;;;;;;17.58;31.49;96996.03;1795950;79;21149;-68
2022/01/30 07:26:24;;;;;;;4.20;2.58;;;;;;;17.53;31.48;97003.58;1786778;78;21025;-68
2022/01/30 07:28:51;;;;;;;4.08;2.50;;;;;;;17.44;31.64;97001.14;1788449;78;20832;-68
2022/01/30 07:31:17;;;;;;;3.70;2.67;;;;;;;17.42;31.72;97005.99;1788124;78;21484;-64
2022/01/30 07:33:43;;;;;;;4.83;2.70;;;;;;;17.38;31.85;96995.54;1797415;78;20962;-65
2022/01/30 07:36:10;;;;;;;3.80;2.02;;;;;;;17.33;31.85;96998.77;1795985;80;21841;-65
2022/01/30 07:38:37;;;;;;;4.42;1.98;;;;;;;17.26;31.88;96992.33;1782222;78;20945;-67
2022/01/30 07:41:03;;;;;;;4.47;2.37;;;;;;;17.13;32.04;96992.88;1790872;80;20943;-70
2022/01/30 07:43:31;;;;;;;3.92;1.98;;;;;;;17.06;32.13;96993.71;1797016;78;21377;-67
2022/01/30 07:46:04;;;;;;;5.97;2.10;;;;;;;17.06;32.13;96995.05;1778719;78;21081;-66
2022/01/30 07:48:35;;;;;;;5.33;2.20;;;;;;;17.02;32.27;96992.13;1788161;78;21153;-66
2022/01/30 07:51:02;;;;;;;6.12;2.72;;;;;;;17.07;32.26;96995.34;1770498;80;20958;-69
2022/01/30 07:53:28;;;;;;;6.65;3.25;;;;;;;17.10;32.24;96992.11;1767296;80;20930;-66
2022/01/30 07:55:56;;;;;;;4.80;2.80;;;;;;;17.11;32.19;96990.48;1784916;80;21493;-66
2022/01/30 07:58:22;;;;;;;7.15;3.02;;;;;;;17.06;32.15;96997.21;1794542;78;20970;-68
2022/01/30 08:00:49;;;;;;;5.62;2.42;;;;;;;17.07;32.16;96996.14;1788355;78;21231;-65
2022/01/30 08:03:15;;;;;;;6.53;2.47;;;;;;;17.01;32.14;96990.50;1782084;80;21465;-65
2022/01/30 08:05:42;;;;;;;4.75;2.70;;;;;;;17.04;32.17;97003.92;1734925;80;21507;-64
2022/01/30 08:08:09;;;;;;;6.55;2.95;;;;;;;17.01;32.12;97001.25;1737406;82;21053;-67
2022/01/30 08:10:37;;;;;;;5.90;2.65;;;;;;;17.01;32.10;97001.25;1736762;82;21009;-68
2022/01/30 08:13:04;;;;;;;5.33;2.58;;;;;;;17.11;31.83;96994.52;1718778;82;21632;-65
2022/01/30 08:15:30;;;;;;;6.62;2.77;;;;;;;17.00;31.96;96991.56;1752974;80;21143;-66
2022/01/30 08:17:57;;;;;;;5.58;3.42;;;;;;;17.10;31.93;96994.80;1740926;80;20937;-68
2022/01/30 08:20:26;;;;;;;4.85;2.37;;;;;;;17.01;32.00;96997.22;1738779;80;21089;-65
2022/01/30 08:22:53;;;;;;;6.53;2.45;;;;;;;16.96;32.06;96994.55;1729375;80;21029;-66
2022/01/30 08:25:21;;;;;;;5.45;1.95;;;;;;;16.90;32.25;96983.53;1773354;80;21121;-65
2022/01/30 08:27:48;;;;;;;3.15;1.98;;;;;;;16.95;32.29;96988.89;1784178;78;21505;-63
2022/01/30 08:30:15;;;;;;;6.62;2.37;;;;;;;17.01;32.21;96994.53;1767560;78;21002;-59
2022/01/30 08:32:47;;;;;;;4.35;1.77;;;;;;;17.05;32.24;96982.16;1728222;80;20970;-64
2022/01/30 08:35:14;;;;;;;5.05;1.80;;;;;;;17.15;32.16;96984.82;1712721;83;21075;-66
2022/01/30 08:37:40;;;;;;;6.17;2.52;;;;;;;17.14;32.14;96985.92;1712877;83;23292;-65
2022/01/30 08:40:10;;;;;;;6.35;2.50;;;;;;;17.15;32.17;96978.67;1712417;83;20924;-66
2022/01/30 08:42:38;;;;;;;6.00;2.55;;;;;;;17.35;32.25;96972.42;1708222;83;21031;-67
2022/01/30 08:45:08;;;;;;;6.53;3.47;;;;;;;17.57;32.07;96980.44;1712625;83;21003;-66
2022/01/30 08:47:35;;;;;;;3.62;1.85;;;;;;;17.80;31.77;96974.45;1709081;83;21606;-64
2022/01/30 08:50:02;;;;;;;4.33;2.40;;;;;;;18.08;31.46;96975.64;1710531;83;21158;-69
2022/01/30 08:52:28;;;;;;;6.70;2.67;;;;;;;18.28;31.04;96975.51;1767281;78;21039;-66
2022/01/30 08:54:54;;;;;;;5.62;3.12;;;;;;;18.46;30.81;96959.22;1740990;82;20973;-69
2022/01/30 08:57:21;;;;;;;5.92;2.80;;;;;;;18.59;30.56;96951.11;1738521;81;21564;-70
2022/01/30 08:59:50;;;;;;;4.45;2.87;;;;;;;18.71;30.23;96944.80;1746440;80;20887;-70
2022/01/30 09:02:18;;;;;;;8.18;3.62;;;;;;;18.78;30.01;96936.66;1737480;82;21173;-70
2022/01/30 09:04:46;;;;;;;5.58;3.10;;;;;;;18.82;29.76;96933.64;1744935;82;21006;-67
2022/01/30 09:07:13;;;;;;;5.28;2.50;;;;;;;18.83;29.62;96931.75;1746396;81;21090;-68
2022/01/30 09:09:39;;;;;;;5.58;2.98;;;;;;;18.79;29.64;96932.88;1745877;82;21054;-65
2022/01/30 09:12:06;;;;;;;4.60;3.08;;;;;;;18.86;29.61;96929.30;1742401;81;21583;-63
2022/01/30 09:14:33;;;;;;;7.20;2.92;;;;;;;19.14;29.59;96932.28;1723819;81;21135;-68
2022/01/30 09:16:59;;;;;;;4.15;1.95;;;;;;;19.27;29.31;96928.33;1732059;81;21552;-64
2022/01/30 09:19:25;;;;;;;6.03;2.60;;;;;;;19.41;29.03;96934.68;1730506;81;21097;-67
2022/01/30 09:21:52;;;;;;;4.70;2.40;;;;;;;19.41;29.25;96929.83;1724394;82;21058;-67
2022/01/30 09:24:19;;;;;;;5.00;2.50;;;;;;;19.57;29.41;96926.67;1725633;81;21106;-64
2022/01/30 09:26:48;;;;;;;6.25;3.20;;;;;;;19.67;29.29;96922.50;1727174;82;21920;-68
2022/01/30 09:29:14;;;;;;;5.58;2.50;;;;;;;19.88;29.19;96922.22;1724178;81;21062;-65
2022/01/30 09:31:41;;;;;;;4.33;2.20;;;;;;;20.08;29.03;96932.17;1724857;82;21007;-65
2022/01/30 09:34:07;;;;;;;3.83;1.85;;;;;;;20.04;28.98;96920.91;1728088;81;21556;-69
2022/01/30 09:36:34;;;;;;;4.62;1.95;;;;;;;19.94;29.02;96917.02;1724431;81;21105;-66
2022/01/30 09:39:01;;;;;;;5.95;2.92;;;;;;;19.76;29.21;96917.81;1726258;82;21443;-65
2022/01/30 09:41:29;;;;;;;6.62;2.55;;;;;;;19.47;29.40;96916.56;1727962;81;20990;-62
2022/01/30 09:43:55;;;;;;;3.65;1.87;;;;;;;19.28;29.54;96904.34;1726022;81;21002;-70
2022/01/30 09:46:22;;;;;;;3.25;1.70;;;;;;;19.30;29.71;96895.95;1725119;81;21700;-69
2022/01/30 09:48:49;;;;;;;2.25;1.57;;;;;;;19.38;29.54;96892.12;1724290;81;21006;-70
2022/01/30 09:51:15;;;;;;;3.42;1.85;;;;;;;19.55;29.42;96882.98;1724836;82;21049;-71
2022/01/30 09:53:42;;;;;;;4.15;2.25;;;;;;;19.98;29.05;96879.70;1724256;81;20935;-66
2022/01/30 09:56:09;;;;;;;4.75;1.87;;;;;;;20.42;28.40;96872.56;1729650;82;21030;-71
2022/01/30 09:58:35;;;;;;;5.80;2.22;;;;;;;20.68;27.98;96861.58;1746787;81;21034;-69
2022/01/30 10:01:02;;;;;;;6.55;2.50;;;;;;;20.68;27.65;96856.17;1747654;81;20938;-68
2022/01/30 10:03:28;;;;;;;4.60;2.55;;;;;;;20.63;27.40;96858.97;1742692;82;21856;-65
2022/01/30 10:06:12;;;;;;;3.98;2.27;;;;;;;20.69;27.42;96852.39;1732879;81;20986;-65
2022/01/30 10:08:46;;;;;;;3.65;1.77;;;;;;;20.90;27.16;96842.00;1732993;82;20958;-67
2022/01/30 10:11:32;;;;;;;4.35;1.82;;;;;;;21.42;26.72;96838.82;1733654;81;21478;-67
2022/01/30 10:14:11;;;;;;;3.20;1.70;;;;;;;21.93;26.17;96839.86;1737386;81;21027;-67
2022/01/30 10:16:47;;;;;;;2.85;1.62;;;;;;;22.44;25.31;96829.98;1740125;82;21990;-66
2022/01/30 10:19:19;;;;;;;3.50;1.65;;;;;;;22.74;24.85;96820.27;1735285;81;20993;-66
2022/01/30 10:21:48;;;;;;;4.62;2.65;;;;;;;22.77;24.37;96829.14;1738552;82;20900;-68
2022/01/30 10:24:25;;;;;;;3.50;2.15;;;;;;;22.73;24.50;96817.34;1738829;81;21639;-66
2022/01/30 10:27:02;;;;;;;3.00;1.67;;;;;;;22.98;24.07;96799.02;1739243;81;21449;-66
2022/01/30 10:29:30;;;;;;;3.27;1.70;;;;;;;23.02;23.79;96805.97;1734343;81;21135;-66
2022/01/30 10:32:05;;;;;;;1.60;1.25;;;;;;;23.16;23.36;96799.86;1735637;81;21497;-67
2022/01/30 10:34:33;;;;;;;4.25;1.82;;;;;;;23.21;22.89;96804.59;1738730;81;20990;-65
2022/01/30 10:37:18;;;;;;;2.08;1.20;;;;;;;23.20;22.60;96801.62;1739138;81;20947;-66
2022/01/30 10:40:09;;;;;;;2.83;1.45;;;;;;;23.14;22.61;96797.47;1734309;81;21582;-65
2022/01/30 10:42:49;;;;;;;2.85;1.27;;;;;;;23.21;22.29;96786.95;1773112;79;21200;-66
2022/01/30 10:45:28;;;;;;;3.25;1.60;;;;;;;23.13;22.18;96801.29;1762269;79;21030;-67
2022/01/30 10:48:21;;;;;;;2.98;1.55;;;;;;;23.24;22.35;96800.44;1774212;79;21005;-69
2022/01/30 10:50:46;;;;;;;3.33;1.60;;;;;;;23.28;21.98;96779.14;1763396;79;21402;-65
2022/01/30 10:53:20;;;;;;;2.33;1.55;;;;;;;23.13;22.04;96794.52;1773084;81;20982;-64
2022/01/30 10:55:48;;;;;;;3.50;1.65;;;;;;;23.07;22.28;96788.20;1766689;79;21200;-67
2022/01/30 10:58:17;;;;;;;3.60;1.70;;;;;;;23.11;22.31;96787.80;1774186;79;20983;-64
2022/01/30 11:00:48;;;;;;;2.87;1.37;;;;;;;23.18;22.25;96776.73;1771320;79;20935;-64
2022/01/30 11:03:44;;;;;;;4.22;2.20;;;;;;;23.19;22.30;96773.47;1774267;79;21002;-66
2022/01/30 11:06:11;;;;;;;3.70;1.80;;;;;;;23.09;22.24;96775.13;1772521;79;21021;-64
2022/01/30 11:08:41;;;;;;;3.45;2.05;;;;;;;22.95;22.50;96777.14;1773218;81;21299;-66
2022/01/30 11:11:19;;;;;;;2.85;1.80;;;;;;;22.85;22.68;96784.21;1755516;81;21636;-64
2022/01/30 11:14:01;;;;;;;4.80;1.65;;;;;;;22.86;22.66;96774.42;1765309;81;21510;-63
2022/01/30 11:19:01;;;;;;;3.47;1.98;;;;;;;22.39;22.77;96765.11;1790722;78;20871;-67
2022/01/30 11:21:28;;;;;;;3.45;2.00;;;;;;;22.07;23.00;96764.83;1788918;78;21137;-68
2022/01/30 11:23:54;;;;;;;3.30;1.40;;;;;;;21.77;23.27;96758.75;1791056;78;21575;-69
2022/01/30 11:26:21;;;;;;;3.05;1.60;;;;;;;21.45;23.66;96761.69;1790444;80;20927;-68
2022/01/30 11:28:48;;;;;;;5.00;1.75;;;;;;;21.22;24.01;96758.69;1790193;80;21531;-70
2022/01/30 11:31:17;;;;;;;3.35;1.80;;;;;;;21.07;24.32;96765.20;1790489;80;20915;-69
2022/01/30 11:33:44;;;;;;;2.40;1.75;;;;;;;20.93;24.49;96762.47;1790614;79;21141;-69
2022/01/30 11:36:11;;;;;;;2.40;1.60;;;;;;;20.82;24.67;96763.80;1790352;79;21054;-67
2022/01/30 11:38:39;;;;;;;4.97;2.22;;;;;;;20.67;24.78;96747.09;1790234;78;20986;-68
2022/01/30 11:41:15;;;;;;;5.90;2.55;;;;;;;20.46;24.95;96760.19;1766477;78;20983;-67
2022/01/30 11:44:21;;;;;;;4.92;2.08;;;;;;;20.17;25.34;96760.95;1790821;79;20918;-71
2022/01/30 11:47:07;;;;;;;6.58;2.17;;;;;;;19.87;25.92;96765.48;1775485;80;23289;-65
2022/01/30 11:49:57;;;;;;;6.42;2.75;;;;;;;19.97;27.32;96751.28;1764298;80;20938;-65
2022/01/30 11:52:51;;;;;;;4.15;2.33;;;;;;;19.77;26.87;96744.07;1731702;82;20939;-62
2022/01/30 11:55:54;;;;;;;4.53;2.25;;;;;;;19.53;27.02;96744.97;1738490;82;20948;-65
2022/01/30 11:58:41;;;;;;;2.60;1.70;;;;;;;19.29;27.17;96745.59;1717801;82;20987;-69
2022/01/30 12:01:26;;;;;;;3.20;1.60;;;;;;;19.05;27.48;96732.72;1721107;82;21568;-64
2022/01/30 12:03:59;;;;;;;3.35;1.72;;;;;;;18.68;27.85;96736.67;1744407;82;20935;-62
2022/01/30 12:06:30;;;;;;;4.08;1.75;;;;;;;18.46;28.33;96729.08;1744650;82;20908;-70
2022/01/30 12:08:59;;;;;;;2.58;1.75;;;;;;;18.32;29.38;96730.33;1743702;82;21489;-66
2022/01/30 12:11:47;;;;;;;4.70;1.85;;;;;;;18.52;30.50;96724.48;1744397;82;20943;-65
2022/01/30 12:14:21;;;;;;;5.08;1.67;;;;;;;18.35;29.98;96712.24;1743873;82;21139;-62
2022/01/30 12:17:00;;;;;;;2.20;1.20;;;;;;;18.09;30.37;96732.98;1741426;81;20931;-64
2022/01/30 12:19:45;;;;;;;3.17;1.57;;;;;;;18.14;45.90;96744.51;1720149;81;20863;-64
2022/01/30 12:22:27;;;;;;;7.08;1.57;;;;;;;17.95;46.38;96758.39;1746524;81;21115;-65
2022/01/30 12:24:57;;;;;;;3.37;1.45;;;;;;;17.87;41.48;96742.86;1746622;81;20880;-70
2022/01/30 12:27:27;;;;;;;3.25;1.60;;;;;;;17.93;48.05;96744.97;1736838;82;21179;-64
2022/01/30 12:29:55;;;;;;;4.25;1.60;;;;;;;18.13;49.62;96740.20;1713975;82;21049;-63
2022/01/30 12:32:27;;;;;;;4.62;1.52;;;;;;;18.09;48.16;96749.94;1716749;82;21065;-63
2022/01/30 12:35:02;;;;;;;2.10;1.42;;;;;;;17.95;43.36;96756.23;1746493;81;20946;-65
2022/01/30 12:37:34;;;;;;;2.27;1.40;;;;;;;17.80;50.40;96753.95;1737799;82;21041;-62
2022/01/30 12:40:11;;;;;;;2.62;1.40;;;;;;;17.54;44.64;96752.55;1724271;82;21187;-62
2022/01/30 12:42:38;;;;;;;2.20;1.30;;;;;;;17.19;42.00;96760.78;1742795;82;21552;-63
2022/01/30 12:45:06;;;;;;;1.25;1.12;;;;;;;17.26;49.01;96754.55;1726326;82;21036;-62